Time;durP1;ratioP1;P1;durP2;ratioP2;P2;SDS_P1;SDS_P2;PMS_P1;PMS_P2;Temp;Humidity;BMP_temperature;BMP_pressure;BME280_temperature;BME280_humidity;BME280_pressure;Samples;Min_cycle;Max_cycle;Signal;HPM_P1;HPM_P2
2021/06/25 00:02:00;;;;;;;2.10;2.00;;;23.70;63.90;;;;;;5045377;28;20038;-36
2021/06/25 00:04:26;;;;;;;1.80;1.70;;;23.70;64.20;;;;;;5043799;28;20508;-36
2021/06/25 00:06:52;;;;;;;2.10;1.90;;;23.70;64.20;;;;;;5044285;28;20033;-36
2021/06/25 00:09:18;;;;;;;1.85;1.67;;;23.70;64.40;;;;;;5044455;28;20081;-36
2021/06/25 00:11:45;;;;;;;1.55;1.45;;;23.70;64.50;;;;;;5053376;28;20029;-35
2021/06/25 00:14:11;;;;;;;1.88;1.77;;;23.70;64.50;;;;;;5052248;28;20033;-36
2021/06/25 00:16:38;;;;;;;2.00;1.90;;;23.70;64.40;;;;;;5044368;28;20044;-36
2021/06/25 00:19:04;;;;;;;2.08;1.90;;;23.70;64.40;;;;;;5044870;28;20701;-36
2021/06/25 00:21:30;;;;;;;1.75;1.65;;;23.70;64.30;;;;;;5044798;28;20089;-37
2021/06/25 00:23:56;;;;;;;1.83;1.73;;;23.70;64.50;;;;;;5044383;28;20051;-36
2021/06/25 00:26:22;;;;;;;1.80;1.70;;;23.80;64.50;;;;;;5044332;28;20084;-36
2021/06/25 00:28:49;;;;;;;2.05;1.95;;;23.80;64.80;;;;;;5055499;28;20033;-36
2021/06/25 00:31:15;;;;;;;1.90;1.80;;;23.70;65.00;;;;;;5064420;28;20024;-36
2021/06/25 00:33:41;;;;;;;1.70;1.60;;;23.80;65.00;;;;;;5064371;28;20033;-36
2021/06/25 00:36:07;;;;;;;1.70;1.60;;;23.80;65.30;;;;;;5063893;28;20036;-36
2021/06/25 00:38:33;;;;;;;1.90;1.80;;;23.80;64.90;;;;;;5048879;28;20089;-36
2021/06/25 00:40:59;;;;;;;1.67;1.58;;;23.80;64.90;;;;;;5044332;28;20084;-36
2021/06/25 00:43:26;;;;;;;1.85;1.75;;;23.80;64.90;;;;;;5044336;28;20025;-35
2021/06/25 00:45:52;;;;;;;1.80;1.70;;;23.80;65.30;;;;;;5043973;28;20085;-36
2021/06/25 00:48:18;;;;;;;2.05;1.95;;;23.80;65.40;;;;;;5060147;28;20036;-36
2021/06/25 00:50:44;;;;;;;1.98;1.88;;;23.80;65.40;;;;;;5064094;28;20033;-35
2021/06/25 00:53:10;;;;;;;1.75;1.65;;;23.80;65.60;;;;;;5063253;28;20021;-36
2021/06/25 00:55:43;;;;;;;1.88;1.77;;;23.80;65.80;;;;;;5062843;28;20452;-36
2021/06/25 00:58:13;;;;;;;2.20;2.00;;;23.80;65.70;;;;;;5043932;28;20034;-36
2021/06/25 01:00:40;;;;;;;1.75;1.65;;;23.80;65.90;;;;;;5044067;28;20095;-36
2021/06/25 01:03:06;;;;;;;1.90;1.80;;;23.80;65.80;;;;;;5029667;28;20040;-36
2021/06/25 01:05:32;;;;;;;1.80;1.70;;;23.80;66.00;;;;;;5024107;28;20038;-36
2021/06/25 01:07:59;;;;;;;1.90;1.80;;;23.80;66.10;;;;;;5032835;28;20033;-37
2021/06/25 01:10:25;;;;;;;1.88;1.77;;;23.80;66.00;;;;;;5043712;28;20035;-36
2021/06/25 01:12:51;;;;;;;1.92;1.70;;;23.80;65.60;;;;;;5043754;28;20034;-36
2021/06/25 01:15:17;;;;;;;1.80;1.70;;;23.80;65.80;;;;;;5043695;28;20434;-36
2021/06/25 01:17:44;;;;;;;1.90;1.80;;;23.80;65.70;;;;;;5046270;28;20100;-36
2021/06/25 01:20:19;;;;;;;1.92;1.83;;;23.80;66.10;;;;;;5063651;28;20028;-36
2021/06/25 01:22:45;;;;;;;1.88;1.77;;;23.80;65.50;;;;;;5042276;28;20052;-35
2021/06/25 01:25:15;;;;;;;1.73;1.63;;;23.80;65.50;;;;;;5043546;28;20021;-36
2021/06/25 01:27:42;;;;;;;2.10;1.88;;;23.90;65.50;;;;;;5061833;28;20071;-35
2021/06/25 01:30:13;;;;;;;1.80;1.70;;;23.90;65.30;;;;;;5063439;28;20109;-36
2021/06/25 01:32:40;;;;;;;1.98;1.88;;;23.90;66.00;;;;;;5063376;28;20040;-36
2021/06/25 01:35:07;;;;;;;2.03;1.92;;;23.90;65.10;;;;;;5045400;28;20044;-36
2021/06/25 01:37:33;;;;;;;;;;;23.90;65.70;;;;;;5056556;28;20029;-36
2021/06/25 01:40:00;;;;;;;1.80;1.70;;;23.90;66.10;;;;;;5041831;28;19913;-36
2021/06/25 01:42:26;;;;;;;2.93;1.77;;;23.90;66.30;;;;;;5043120;28;20498;-36
2021/06/25 01:44:52;;;;;;;1.92;1.83;;;23.90;66.70;;;;;;5043259;28;20025;-36
2021/06/25 01:47:19;;;;;;;2.33;2.13;;;23.80;66.60;;;;;;5052323;28;20053;-36
2021/06/25 01:49:45;;;;;;;1.80;1.70;;;23.90;66.40;;;;;;5052182;28;20049;-36
2021/06/25 01:52:18;;;;;;;1.90;1.80;;;23.90;66.20;;;;;;5054438;28;20025;-36
2021/06/25 01:54:45;;;;;;;1.83;1.73;;;23.80;66.80;;;;;;5029789;28;20447;-36
2021/06/25 01:57:11;;;;;;;;;;;23.90;66.20;;;;;;5033029;28;20493;-36
2021/06/25 01:59:38;;;;;;;2.05;1.95;;;23.90;65.50;;;;;;5030460;28;19920;-36
2021/06/25 02:02:04;;;;;;;2.13;1.98;;;23.90;65.40;;;;;;5036891;28;20021;-36
2021/06/25 02:04:30;;;;;;;2.37;1.93;;;23.90;65.10;;;;;;5030164;28;20053;-36
2021/06/25 02:06:56;;;;;;;2.00;1.90;;;23.90;64.90;;;;;;5030605;28;20056;-35
2021/06/25 02:09:22;;;;;;;2.35;2.17;;;23.90;65.00;;;;;;5038288;28;20052;-35
2021/06/25 02:11:49;;;;;;;1.75;1.65;;;23.90;65.10;;;;;;5035279;28;20049;-37
2021/06/25 02:14:15;;;;;;;1.70;1.60;;;23.90;65.10;;;;;;5036652;28;20379;-36
2021/06/25 02:16:41;;;;;;;2.08;1.95;;;23.90;65.00;;;;;;5025257;28;20014;-36
2021/06/25 02:19:07;;;;;;;2.35;1.92;;;23.90;65.00;;;;;;5026811;28;20079;-35
2021/06/25 02:21:33;;;;;;;2.08;1.92;;;23.90;65.00;;;;;;5035838;28;20031;-35
2021/06/25 02:23:59;;;;;;;1.95;1.85;;;23.90;65.70;;;;;;5032691;28;20022;-36
2021/06/25 02:26:26;;;;;;;2.45;2.25;;;23.90;65.30;;;;;;5026161;28;20026;-35
2021/06/25 02:28:52;;;;;;;2.30;2.10;;;23.90;65.30;;;;;;5027904;28;20051;-36
2021/06/25 02:31:19;;;;;;;2.30;2.10;;;23.90;65.30;;;;;;5029788;28;20067;-36
2021/06/25 02:33:45;;;;;;;2.05;1.95;;;23.90;65.40;;;;;;5026055;28;20069;-35
2021/06/25 02:36:11;;;;;;;2.30;2.20;;;23.90;65.70;;;;;;5034618;28;20079;-36
2021/06/25 02:38:38;;;;;;;2.13;2.03;;;23.90;65.80;;;;;;5033708;28;20089;-36
2021/06/25 02:41:04;;;;;;;2.55;2.35;;;23.90;66.00;;;;;;5029033;28;20114;-36
2021/06/25 02:43:30;;;;;;;2.17;2.08;;;23.90;66.00;;;;;;5031893;28;20029;-35
2021/06/25 02:45:56;;;;;;;2.72;2.53;;;23.90;65.60;;;;;;5038213;28;20037;-37
2021/06/25 02:48:22;;;;;;;2.65;2.45;;;23.90;65.80;;;;;;5032540;28;20053;-37
2021/06/25 02:50:49;;;;;;;2.60;2.40;;;23.90;65.80;;;;;;5032342;28;20053;-36
2021/06/25 02:53:15;;;;;;;2.53;2.25;;;23.90;66.10;;;;;;5027557;28;20030;-37
2021/06/25 02:55:50;;;;;;;2.58;2.38;;;23.90;66.10;;;;;;5035536;28;20447;-37
2021/06/25 02:58:18;;;;;;;3.17;2.97;;;24.00;66.10;;;;;;5028734;28;20089;-37
2021/06/25 03:00:44;;;;;;;3.22;2.53;;;23.90;66.20;;;;;;5027733;28;20108;-37
2021/06/25 03:03:10;;;;;;;2.75;2.55;;;24.00;66.50;;;;;;5028437;28;20037;-37
2021/06/25 03:05:36;;;;;;;2.78;2.58;;;24.00;67.30;;;;;;5030014;28;20085;-36
2021/06/25 03:08:03;;;;;;;2.47;2.28;;;23.90;66.50;;;;;;5032848;28;20030;-37
2021/06/25 03:10:29;;;;;;;2.70;2.50;;;23.90;66.60;;;;;;5030186;28;20106;-37
2021/06/25 03:12:55;;;;;;;2.67;2.47;;;24.00;66.70;;;;;;5028057;28;20058;-37
2021/06/25 03:15:21;;;;;;;2.53;2.33;;;24.00;66.70;;;;;;5030340;28;20042;-36
2021/06/25 03:17:47;;;;;;;2.45;2.25;;;24.00;66.70;;;;;;5028508;28;20048;-37
2021/06/25 03:20:14;;;;;;;2.67;2.47;;;23.90;66.70;;;;;;5033774;28;20030;-37
2021/06/25 03:22:41;;;;;;;2.47;2.28;;;24.00;66.80;;;;;;5031950;28;20208;-37
2021/06/25 03:25:07;;;;;;;2.53;2.33;;;23.90;66.80;;;;;;5029601;28;20039;-36
2021/06/25 03:27:34;;;;;;;2.70;2.50;;;23.90;66.90;;;;;;5024617;28;20036;-37
2021/06/25 03:30:00;;;;;;;2.20;2.10;;;23.90;66.90;;;;;;5030645;28;20045;-37
2021/06/25 03:32:26;;;;;;;2.40;2.20;;;23.90;66.90;;;;;;5029312;28;20029;-36
2021/06/25 03:34:52;;;;;;;2.65;2.45;;;23.90;66.90;;;;;;5028657;28;20060;-36
2021/06/25 03:37:19;;;;;;;2.92;2.10;;;23.90;66.80;;;;;;5026490;28;20033;-37
2021/06/25 03:39:45;;;;;;;2.60;2.40;;;23.90;66.90;;;;;;5043965;28;20034;-37
2021/06/25 03:42:11;;;;;;;2.28;2.08;;;23.90;66.90;;;;;;5045112;28;20120;-37
2021/06/25 03:44:37;;;;;;;2.15;2.05;;;23.90;66.90;;;;;;5029591;28;20018;-37
2021/06/25 03:47:03;;;;;;;2.10;2.00;;;23.90;67.20;;;;;;5032630;28;20098;-37
2021/06/25 03:49:30;;;;;;;2.53;2.33;;;23.90;67.00;;;;;;5065237;28;20064;-37
2021/06/25 03:51:57;;;;;;;2.58;2.38;;;23.80;66.90;;;;;;5065026;28;20563;-37
2021/06/25 03:54:23;;;;;;;2.42;2.33;;;23.90;67.00;;;;;;5064619;28;20068;-37
2021/06/25 03:56:49;;;;;;;2.80;2.60;;;23.80;66.90;;;;;;5045227;28;20487;-37
2021/06/25 03:59:15;;;;;;;2.35;2.15;;;23.80;66.90;;;;;;5060013;28;20755;-37
2021/06/25 04:01:42;;;;;;;2.20;2.00;;;23.90;66.90;;;;;;5064115;28;20037;-37
2021/06/25 04:04:09;;;;;;;2.38;2.28;;;23.80;66.90;;;;;;5063879;28;20045;-37
2021/06/25 04:06:35;;;;;;;2.05;1.95;;;23.90;67.00;;;;;;5060760;28;20089;-37
2021/06/25 04:09:01;;;;;;;2.22;2.13;;;23.80;67.00;;;;;;5028908;28;20044;-37
2021/06/25 04:11:27;;;;;;;3.05;2.15;;;23.80;67.10;;;;;;5054277;28;20017;-37
2021/06/25 04:13:53;;;;;;;2.28;2.17;;;23.80;67.10;;;;;;5044662;28;20022;-37
2021/06/25 04:16:20;;;;;;;2.92;2.10;;;23.80;67.10;;;;;;5044757;28;20025;-37
2021/06/25 04:18:46;;;;;;;2.50;2.30;;;23.80;67.10;;;;;;5044607;28;20060;-37
2021/06/25 04:21:12;;;;;;;2.50;2.30;;;23.80;67.40;;;;;;5044624;28;20029;-37
2021/06/25 04:23:38;;;;;;;2.42;2.20;;;23.70;67.40;;;;;;5044185;28;20030;-37
2021/06/25 04:26:04;;;;;;;2.20;2.05;;;23.80;67.60;;;;;;5044844;28;20037;-37
2021/06/25 04:28:31;;;;;;;2.23;2.13;;;23.80;67.70;;;;;;5043085;28;20092;-37
2021/06/25 04:30:57;;;;;;;2.33;2.13;;;23.70;68.00;;;;;;5043646;28;20036;-37
2021/06/25 04:33:24;;;;;;;3.00;2.40;;;23.70;68.00;;;;;;5043649;28;20056;-37
2021/06/25 04:35:52;;;;;;;2.53;2.33;;;23.70;67.80;;;;;;5041875;28;20033;-37
2021/06/25 04:38:19;;;;;;;2.50;2.00;;;23.70;68.20;;;;;;5044627;28;20029;-37
2021/06/25 04:40:45;;;;;;;2.40;2.20;;;23.70;67.90;;;;;;5042987;28;20030;-37
2021/06/25 04:43:13;;;;;;;2.30;2.20;;;23.70;68.10;;;;;;5040134;28;20028;-37
2021/06/25 04:45:40;;;;;;;2.50;2.30;;;23.70;68.00;;;;;;5042183;28;20025;-37
2021/06/25 04:48:07;;;;;;;2.40;2.20;;;23.70;68.10;;;;;;5063984;28;20029;-37
2021/06/25 04:50:33;;;;;;;2.40;2.20;;;23.70;68.20;;;;;;5062017;28;20032;-37
2021/06/25 04:52:59;;;;;;;2.30;2.17;;;23.70;68.00;;;;;;5063776;28;20048;-37
2021/06/25 04:55:26;;;;;;;2.40;2.20;;;23.60;67.90;;;;;;5064063;28;20051;-37
2021/06/25 04:57:53;;;;;;;2.65;2.45;;;23.70;68.00;;;;;;5063812;28;20027;-37
2021/06/25 05:00:20;;;;;;;2.10;1.92;;;23.60;67.90;;;;;;5063576;28;20029;-37
2021/06/25 05:02:47;;;;;;;2.28;2.08;;;23.60;67.80;;;;;;5041069;28;20033;-37
2021/06/25 05:05:14;;;;;;;4.30;2.22;;;23.60;67.80;;;;;;5044124;28;20051;-37
2021/06/25 05:07:40;;;;;;;3.05;2.28;;;23.60;67.90;;;;;;5042951;28;20071;-37
2021/06/25 05:10:06;;;;;;;2.47;2.28;;;23.60;67.90;;;;;;5043430;28;20061;-37
2021/06/25 05:12:32;;;;;;;2.60;2.40;;;23.60;67.90;;;;;;5043760;28;20041;-37
2021/06/25 05:14:59;;;;;;;2.40;2.20;;;23.60;68.00;;;;;;5024835;28;20101;-37
2021/06/25 05:17:28;;;;;;;2.20;2.10;;;23.60;68.00;;;;;;5023784;28;20046;-37
2021/06/25 05:19:54;;;;;;;2.30;2.15;;;23.60;68.20;;;;;;5023818;28;20026;-37
2021/06/25 05:22:21;;;;;;;2.28;2.08;;;23.60;68.20;;;;;;5042483;28;20059;-37
2021/06/25 05:24:47;;;;;;;2.92;2.25;;;23.60;68.50;;;;;;5043131;28;20030;-37
2021/06/25 05:27:13;;;;;;;2.67;2.38;;;23.50;68.80;;;;;;5043308;28;20034;-37
2021/06/25 05:29:39;;;;;;;2.55;2.35;;;23.50;68.80;;;;;;5043477;28;20045;-37
2021/06/25 05:32:05;;;;;;;2.30;2.10;;;23.50;68.90;;;;;;5043374;28;20034;-37
2021/06/25 05:34:32;;;;;;;2.47;2.27;;;23.50;68.90;;;;;;5043151;28;20038;-37
2021/06/25 05:36:58;;;;;;;2.55;2.35;;;23.50;69.00;;;;;;5043200;28;20092;-37
2021/06/25 05:39:24;;;;;;;2.53;2.33;;;23.50;69.10;;;;;;5044693;28;20033;-37
2021/06/25 05:41:50;;;;;;;2.28;2.08;;;23.50;69.20;;;;;;5042399;28;20792;-37
2021/06/25 05:44:16;;;;;;;2.22;2.03;;;23.50;69.50;;;;;;5043137;28;20085;-37
2021/06/25 05:46:42;;;;;;;2.55;2.35;;;23.50;69.00;;;;;;5043097;28;20036;-37
2021/06/25 05:49:09;;;;;;;2.83;2.63;;;23.50;68.80;;;;;;5041174;28;20129;-37
2021/06/25 05:51:35;;;;;;;2.63;2.42;;;23.40;69.00;;;;;;5042996;28;20516;-37
2021/06/25 05:54:01;;;;;;;2.42;2.22;;;23.40;69.00;;;;;;5042597;28;20042;-37
2021/06/25 05:56:27;;;;;;;3.25;2.40;;;23.40;68.80;;;;;;5043022;28;20029;-36
2021/06/25 05:58:53;;;;;;;2.40;2.20;;;23.40;68.80;;;;;;5043154;28;20103;-37
2021/06/25 06:01:19;;;;;;;2.33;2.20;;;23.40;68.70;;;;;;5049693;28;20039;-37
2021/06/25 06:03:46;;;;;;;2.40;2.20;;;23.40;68.70;;;;;;5062018;28;20025;-37
2021/06/25 06:06:12;;;;;;;2.22;2.08;;;23.40;68.80;;;;;;5059742;28;20056;-37
2021/06/25 06:08:38;;;;;;;2.47;2.20;;;23.40;68.80;;;;;;5043198;28;20041;-38
2021/06/25 06:11:05;;;;;;;2.20;2.10;;;23.40;68.70;;;;;;5042915;28;20025;-37
2021/06/25 06:13:31;;;;;;;2.28;2.08;;;23.40;68.70;;;;;;5042044;28;20055;-36
2021/06/25 06:15:57;;;;;;;2.00;1.90;;;23.40;69.00;;;;;;5042928;28;20481;-37
2021/06/25 06:18:35;;;;;;;2.38;2.17;;;23.40;69.10;;;;;;5042606;28;20065;-37
2021/06/25 06:21:02;;;;;;;2.15;2.05;;;23.30;69.70;;;;;;5042820;28;20037;-37
2021/06/25 06:31:49;;;;;;;2.42;2.08;;;23.30;70.00;;;;;;5041513;28;20048;-37
2021/06/25 06:34:16;;;;;;;2.47;2.28;;;23.30;70.00;;;;;;5039392;28;20068;-37
2021/06/25 06:36:45;;;;;;;2.28;2.17;;;23.30;69.60;;;;;;5042695;28;20031;-37
2021/06/25 06:39:12;;;;;;;2.60;2.40;;;23.30;69.70;;;;;;5036896;28;20056;-37
2021/06/25 06:41:39;;;;;;;2.25;2.05;;;23.30;69.40;;;;;;5042450;28;20018;-37
2021/06/25 06:44:05;;;;;;;2.00;1.90;;;23.30;69.40;;;;;;5040561;28;20060;-37
2021/06/25 06:46:32;;;;;;;2.40;2.20;;;23.30;69.30;;;;;;5042565;28;20033;-37
2021/06/25 06:48:58;;;;;;;2.38;2.20;;;23.30;69.40;;;;;;5059956;28;20047;-37
2021/06/25 06:51:25;;;;;;;2.20;2.10;;;23.30;69.30;;;;;;5062100;28;20043;-37
2021/06/25 06:53:52;;;;;;;2.53;2.33;;;23.30;69.30;;;;;;5062555;28;20088;-37
2021/06/25 06:56:20;;;;;;;3.42;2.30;;;23.30;69.30;;;;;;5043391;28;20052;-37
2021/06/25 06:58:46;;;;;;;2.42;2.20;;;23.30;69.40;;;;;;5022787;28;20034;-37
2021/06/25 07:01:12;;;;;;;2.47;2.28;;;23.20;69.30;;;;;;5021405;28;20041;-37
2021/06/25 07:03:38;;;;;;;2.45;2.25;;;23.30;69.20;;;;;;5030072;28;20029;-38
2021/06/25 07:06:05;;;;;;;2.30;2.10;;;23.20;69.30;;;;;;5061045;28;20096;-37
2021/06/25 07:08:31;;;;;;;2.13;2.03;;;23.20;69.40;;;;;;5039327;28;20048;-37
2021/06/25 07:10:58;;;;;;;2.50;2.30;;;23.20;69.50;;;;;;5041771;28;20278;-37
2021/06/25 07:13:24;;;;;;;2.40;2.20;;;23.20;70.00;;;;;;5042729;28;20267;-37
2021/06/25 07:15:50;;;;;;;2.58;2.38;;;23.20;70.00;;;;;;5045004;28;20438;-38
2021/06/25 07:18:17;;;;;;;2.50;2.30;;;23.20;70.20;;;;;;5046095;28;20041;-37
2021/06/25 07:20:43;;;;;;;2.50;2.30;;;23.20;70.20;;;;;;5045704;28;20528;-37
2021/06/25 07:23:09;;;;;;;2.60;2.40;;;23.20;70.20;;;;;;5045006;28;20033;-37
2021/06/25 07:25:36;;;;;;;2.47;2.20;;;23.20;70.00;;;;;;5045754;28;20131;-37
2021/06/25 07:28:02;;;;;;;2.50;2.30;;;23.20;70.40;;;;;;5045999;28;20388;-37
2021/06/25 07:30:28;;;;;;;2.42;2.22;;;23.20;70.30;;;;;;5045650;28;20052;-37
2021/06/25 07:32:54;;;;;;;2.55;2.35;;;23.10;70.20;;;;;;5046203;28;20049;-37
2021/06/25 07:35:20;;;;;;;2.63;2.42;;;23.20;69.90;;;;;;5045927;28;20025;-37
2021/06/25 07:37:47;;;;;;;2.20;2.10;;;23.20;69.90;;;;;;5045809;28;20031;-37
2021/06/25 07:40:13;;;;;;;2.42;2.20;;;23.10;69.80;;;;;;5045342;28;20025;-37
2021/06/25 07:42:39;;;;;;;2.67;2.47;;;23.20;69.80;;;;;;5044661;28;20044;-37
2021/06/25 07:45:09;;;;;;;2.67;2.47;;;23.10;69.80;;;;;;5045702;28;20267;-37
2021/06/25 07:47:36;;;;;;;2.30;2.20;;;23.10;69.80;;;;;;5044992;28;20051;-37
2021/06/25 07:50:04;;;;;;;2.47;2.28;;;23.10;69.80;;;;;;5030552;28;20038;-37
2021/06/25 07:52:30;;;;;;;2.50;2.30;;;23.10;69.90;;;;;;5028945;28;20034;-37
2021/06/25 07:54:56;;;;;;;2.50;2.30;;;23.10;69.90;;;;;;5056847;28;20025;-36
2021/06/25 07:57:22;;;;;;;2.38;2.20;;;23.10;70.00;;;;;;5065351;28;20059;-37
2021/06/25 07:59:49;;;;;;;2.17;2.08;;;23.10;70.00;;;;;;5065077;28;20036;-37
2021/06/25 08:02:15;;;;;;;2.25;2.15;;;23.10;70.00;;;;;;5064991;28;20025;-37
2021/06/25 08:04:50;;;;;;;2.63;2.42;;;23.10;70.20;;;;;;5065431;28;20036;-37
2021/06/25 08:07:16;;;;;;;2.65;2.45;;;23.10;70.50;;;;;;5060525;28;20056;-37
2021/06/25 08:09:42;;;;;;;2.35;2.15;;;23.10;70.50;;;;;;5042639;28;20482;-37
2021/06/25 08:12:10;;;;;;;2.20;2.10;;;23.10;70.20;;;;;;5044978;28;20076;-37
2021/06/25 08:14:36;;;;;;;2.28;2.15;;;23.10;70.30;;;;;;5045205;28;20064;-37
2021/06/25 08:17:03;;;;;;;2.20;2.10;;;23.00;70.40;;;;;;5050960;28;20679;-37
2021/06/25 08:19:29;;;;;;;2.60;2.40;;;23.00;70.50;;;;;;5065145;28;20048;-37
2021/06/25 08:21:56;;;;;;;2.42;2.22;;;23.00;70.20;;;;;;5047527;28;20056;-37
2021/06/25 08:24:22;;;;;;;4.33;2.30;;;23.00;70.20;;;;;;5044883;28;20037;-37
2021/06/25 08:26:49;;;;;;;2.15;2.05;;;23.00;70.30;;;;;;5043912;28;20026;-37
2021/06/25 08:29:15;;;;;;;2.40;2.20;;;23.00;70.20;;;;;;5044737;28;20037;-37
2021/06/25 08:31:41;;;;;;;2.28;2.13;;;23.00;70.30;;;;;;5044506;28;20041;-38
2021/06/25 08:34:10;;;;;;;2.55;2.35;;;23.00;70.40;;;;;;5044943;28;20026;-37
2021/06/25 08:36:37;;;;;;;2.60;2.40;;;22.90;70.30;;;;;;5042139;28;20583;-37
2021/06/25 08:39:03;;;;;;;3.42;2.28;;;23.00;70.50;;;;;;5059674;28;20018;-37
2021/06/25 08:41:29;;;;;;;3.97;2.22;;;23.00;70.40;;;;;;5044228;28;20037;-37
2021/06/25 08:43:56;;;;;;;1.98;1.88;;;23.00;70.50;;;;;;5044016;28;20036;-37
2021/06/25 08:46:22;;;;;;;2.47;2.35;;;22.90;70.40;;;;;;5031100;28;20025;-37
2021/06/25 08:48:48;;;;;;;2.60;2.38;;;22.90;70.50;;;;;;5026640;28;20045;-38
2021/06/25 08:51:15;;;;;;;2.42;2.22;;;22.90;70.40;;;;;;5054520;28;20064;-37
2021/06/25 08:53:42;;;;;;;2.40;2.20;;;22.90;70.60;;;;;;5037674;28;20108;-37
2021/06/25 08:56:08;;;;;;;2.40;2.20;;;22.90;70.40;;;;;;5030161;28;20076;-37
2021/06/25 08:58:34;;;;;;;2.30;2.20;;;22.90;70.40;;;;;;5024561;28;20033;-37
2021/06/25 09:01:00;;;;;;;2.10;2.00;;;22.90;70.40;;;;;;5022883;28;20080;-37
2021/06/25 09:03:30;;;;;;;2.38;2.20;;;22.90;70.60;;;;;;5024046;28;20026;-37
2021/06/25 09:06:10;;;;;;;2.10;2.00;;;22.90;70.50;;;;;;5024255;28;20108;-37
2021/06/25 09:08:37;;;;;;;2.40;2.20;;;22.90;70.60;;;;;;5040097;28;20052;-37
2021/06/25 09:11:25;;;;;;;2.40;2.20;;;22.90;70.60;;;;;;5040929;28;20063;-37
2021/06/25 09:14:02;;;;;;;2.30;2.10;;;22.90;70.60;;;;;;5044284;28;20033;-37
2021/06/25 09:16:30;;;;;;;2.37;2.20;;;22.80;70.60;;;;;;5044017;28;20033;-37
2021/06/25 09:18:59;;;;;;;2.13;2.03;;;22.80;70.60;;;;;;5043677;28;20049;-37
2021/06/25 09:21:26;;;;;;;2.30;2.20;;;22.80;70.70;;;;;;5043871;28;20045;-38
2021/06/25 09:23:52;;;;;;;2.40;2.20;;;22.80;70.70;;;;;;5043492;28;20032;-37
2021/06/25 09:26:21;;;;;;;2.63;2.42;;;22.80;70.90;;;;;;5043464;28;20041;-38
2021/06/25 09:28:48;;;;;;;2.42;2.22;;;22.80;70.90;;;;;;5042112;28;20037;-37
2021/06/25 09:31:15;;;;;;;2.17;2.08;;;22.80;70.90;;;;;;5041131;28;20053;-37
2021/06/25 09:33:49;;;;;;;2.33;2.15;;;22.80;70.90;;;;;;5040581;28;20037;-37
2021/06/25 09:36:25;;;;;;;2.60;2.40;;;22.80;71.00;;;;;;5063319;28;20033;-37
2021/06/25 09:39:10;;;;;;;2.08;1.98;;;22.80;71.00;;;;;;5045605;28;20064;-38
2021/06/25 09:41:38;;;;;;;2.20;2.10;;;22.70;70.90;;;;;;5042790;28;20036;-37
2021/06/25 09:44:08;;;;;;;2.40;2.20;;;22.70;71.00;;;;;;5043122;28;20852;-37
2021/06/25 09:46:35;;;;;;;2.13;2.00;;;22.70;70.90;;;;;;5042894;28;20562;-37
2021/06/25 09:49:04;;;;;;;2.13;2.03;;;22.70;71.00;;;;;;5043279;28;20034;-37
2021/06/25 09:51:30;;;;;;;2.33;2.15;;;22.70;71.00;;;;;;5043303;28;20065;-37
2021/06/25 09:54:09;;;;;;;2.10;2.00;;;22.70;71.00;;;;;;5042864;28;20033;-37
2021/06/25 09:56:47;;;;;;;2.25;2.10;;;22.70;71.10;;;;;;5042959;28;20545;-38
2021/06/25 09:59:40;;;;;;;2.50;2.30;;;22.70;71.10;;;;;;5043126;28;20441;-37
2021/06/25 10:02:22;;;;;;;2.40;2.20;;;22.70;71.10;;;;;;5041722;28;20037;-37
2021/06/25 10:04:49;;;;;;;2.58;2.38;;;22.70;71.10;;;;;;5043100;28;20022;-38
2021/06/25 10:07:25;;;;;;;2.15;2.05;;;22.70;71.10;;;;;;5041678;28;20030;-37
2021/06/25 10:09:51;;;;;;;2.55;2.35;;;22.60;71.10;;;;;;5038135;28;20045;-37
2021/06/25 10:12:19;;;;;;;2.53;2.33;;;22.60;71.30;;;;;;5042511;28;20036;-36
2021/06/25 10:14:46;;;;;;;2.55;2.35;;;22.60;71.30;;;;;;5042814;28;20037;-37
2021/06/25 10:17:13;;;;;;;2.22;2.13;;;22.60;71.30;;;;;;5042893;28;20056;-37
2021/06/25 10:19:42;;;;;;;2.53;2.33;;;22.60;71.40;;;;;;5042793;28;20486;-37
2021/06/25 10:22:08;;;;;;;2.42;2.22;;;22.60;71.50;;;;;;5042886;28;20078;-37
2021/06/25 10:24:35;;;;;;;2.47;2.30;;;22.60;71.50;;;;;;5060293;28;20025;-37
2021/06/25 10:27:03;;;;;;;2.47;2.27;;;22.60;71.50;;;;;;5061169;28;20675;-37
2021/06/25 10:29:31;;;;;;;2.20;2.08;;;22.60;71.50;;;;;;5044403;28;20506;-37
2021/06/25 10:31:57;;;;;;;2.53;2.33;;;22.50;71.40;;;;;;5034335;28;20106;-37
2021/06/25 10:34:23;;;;;;;2.70;2.50;;;22.50;71.50;;;;;;5022496;28;20046;-37
2021/06/25 10:36:51;;;;;;;2.15;2.05;;;22.50;71.50;;;;;;5023574;28;20550;-37
2021/06/25 10:39:17;;;;;;;2.60;2.40;;;22.50;71.50;;;;;;5024615;28;20527;-37
2021/06/25 10:41:56;;;;;;;2.53;2.33;;;22.50;71.50;;;;;;5040874;28;20025;-37
2021/06/25 10:44:31;;;;;;;2.10;2.00;;;22.50;71.50;;;;;;5042238;28;20124;-37
2021/06/25 10:47:17;;;;;;;2.40;2.22;;;22.50;71.50;;;;;;5042645;28;20021;-37
2021/06/25 10:50:02;;;;;;;2.38;2.17;;;22.50;71.50;;;;;;5029452;28;20045;-37
2021/06/25 10:52:36;;;;;;;1.92;1.83;;;22.50;71.70;;;;;;5043146;28;20450;-37
2021/06/25 10:55:12;;;;;;;2.20;2.05;;;22.50;71.60;;;;;;5044661;28;20057;-37
2021/06/25 10:57:51;;;;;;;2.50;2.30;;;22.40;71.60;;;;;;5046543;28;20045;-38
2021/06/25 11:00:30;;;;;;;2.20;2.10;;;22.40;71.70;;;;;;5046250;28;20075;-37
2021/06/25 11:02:56;;;;;;;2.40;2.20;;;22.40;71.70;;;;;;5046257;28;20032;-37
2021/06/25 11:05:25;;;;;;;2.63;2.42;;;22.40;71.70;;;;;;5046283;28;20505;-37
2021/06/25 11:08:01;;;;;;;2.47;2.28;;;22.40;71.80;;;;;;5045789;28;20049;-37
2021/06/25 11:10:32;;;;;;;2.47;2.28;;;22.40;71.80;;;;;;5044429;28;20034;-37
2021/06/25 11:13:16;;;;;;;2.17;2.08;;;22.40;71.90;;;;;;5049274;28;20021;-37
2021/06/25 11:15:46;;;;;;;2.33;2.13;;;22.40;71.80;;;;;;5065962;28;20048;-37
2021/06/25 11:18:22;;;;;;;2.25;2.05;;;22.40;71.80;;;;;;5066088;28;20473;-37
2021/06/25 11:20:59;;;;;;;2.60;2.40;;;22.40;71.90;;;;;;5065848;28;20039;-37
2021/06/25 11:23:39;;;;;;;2.60;2.40;;;22.40;71.90;;;;;;5064228;28;20068;-36
2021/06/25 11:26:15;;;;;;;2.40;2.30;;;22.40;71.90;;;;;;5065663;28;20260;-37
2021/06/25 11:28:46;;;;;;;2.60;2.40;;;22.30;71.90;;;;;;5065810;28;20025;-37
2021/06/25 11:31:17;;;;;;;2.70;2.50;;;22.40;72.70;;;;;;5060263;28;20489;-37
2021/06/25 11:33:54;;;;;;;2.42;2.22;;;22.30;72.00;;;;;;5025570;28;20030;-37
2021/06/25 11:36:40;;;;;;;2.67;2.30;;;22.30;72.00;;;;;;5026144;28;20033;-37
2021/06/25 11:39:29;;;;;;;2.28;2.15;;;22.30;72.00;;;;;;5045006;28;20037;-37
2021/06/25 11:41:59;;;;;;;;;;;22.30;72.10;;;;;;5026085;28;20085;-37
2021/06/25 11:44:42;;;;;;;2.42;2.22;;;22.30;72.10;;;;;;5025526;28;19909;-37
2021/06/25 11:47:13;;;;;;;2.42;2.22;;;22.40;72.10;;;;;;5025630;28;20026;-37
2021/06/25 11:49:46;;;;;;;2.33;2.13;;;22.30;72.20;;;;;;5024335;28;20054;-37
2021/06/25 11:52:13;;;;;;;2.63;2.42;;;22.30;72.10;;;;;;5030869;28;20739;-37
2021/06/25 11:54:40;;;;;;;2.30;2.20;;;22.30;72.10;;;;;;5045283;28;20030;-37
2021/06/25 11:57:13;;;;;;;2.63;2.42;;;22.30;72.10;;;;;;5044968;28;20029;-37
2021/06/25 11:59:39;;;;;;;2.80;2.60;;;22.30;72.10;;;;;;5045172;28;20080;-37
2021/06/25 12:02:05;;;;;;;2.28;2.17;;;22.30;72.10;;;;;;5044994;28;20025;-37
2021/06/25 12:04:35;;;;;;;2.42;2.22;;;22.30;72.20;;;;;;5045354;28;20039;-37
2021/06/25 12:07:02;;;;;;;2.55;2.35;;;22.30;72.20;;;;;;5044259;28;20030;-37
2021/06/25 12:09:43;;;;;;;2.50;2.30;;;22.30;72.30;;;;;;5044187;28;20041;-37
2021/06/25 12:12:10;;;;;;;2.38;2.22;;;22.30;72.20;;;;;;5044741;28;20025;-37
2021/06/25 12:14:47;;;;;;;2.58;2.38;;;22.30;72.30;;;;;;5044985;28;20033;-37
2021/06/25 12:17:14;;;;;;;2.37;2.17;;;22.30;72.20;;;;;;5043359;28;20120;-37
2021/06/25 12:19:40;;;;;;;3.47;2.47;;;22.30;72.30;;;;;;5045014;28;20117;-37
2021/06/25 12:22:09;;;;;;;3.03;2.83;;;22.30;72.30;;;;;;5029743;28;20034;-37
2021/06/25 12:24:52;;;;;;;2.72;2.53;;;22.30;72.40;;;;;;5024980;28;20275;-37
2021/06/25 12:27:19;;;;;;;2.60;2.40;;;22.30;72.30;;;;;;5037242;28;20120;-36
2021/06/25 12:29:53;;;;;;;2.30;2.20;;;22.30;72.50;;;;;;5044013;28;20124;-37
2021/06/25 12:32:20;;;;;;;2.25;2.05;;;22.30;72.50;;;;;;5038832;28;20029;-37
2021/06/25 12:34:58;;;;;;;2.70;2.50;;;22.30;72.40;;;;;;5048912;28;20120;-37
2021/06/25 12:37:24;;;;;;;2.50;2.30;;;22.30;72.50;;;;;;5034193;28;20053;-37
2021/06/25 12:39:50;;;;;;;2.92;2.72;;;22.30;72.50;;;;;;5024691;28;20686;-37
2021/06/25 12:42:20;;;;;;;2.38;2.28;;;22.30;72.40;;;;;;5024584;28;20022;-37
2021/06/25 12:44:47;;;;;;;2.65;2.45;;;22.30;72.60;;;;;;5025666;28;20033;-37
2021/06/25 12:47:13;;;;;;;2.70;2.50;;;22.30;72.40;;;;;;5045602;28;20845;-37
2021/06/25 12:49:41;;;;;;;2.67;2.47;;;22.30;72.60;;;;;;5054124;28;20049;-37
2021/06/25 12:52:40;;;;;;;2.60;2.40;;;22.30;72.60;;;;;;5026917;28;20517;-37
2021/06/25 12:55:07;;;;;;;2.55;2.35;;;22.30;72.40;;;;;;4985315;28;20049;-37
2021/06/25 12:57:34;;;;;;;2.67;2.47;;;22.30;72.50;;;;;;4985624;28;20038;-37
2021/06/25 13:00:00;;;;;;;3.00;2.38;;;22.30;72.60;;;;;;5001827;28;20037;-37
2021/06/25 13:02:27;;;;;;;2.83;2.63;;;22.40;72.70;;;;;;4985525;28;20032;-37